Latest Weather Observations for Cooktown

IDQ60801

Issued at 5:05 pm EST Thursday 31 July 2014 (issued every 30 minutes, with the page automatically refreshed every 10 minutes)

About weather observations | Map of weather stations | Latest weather observations for QLD | Other Formats
Station Details ID: 031209 Name: COOKTOWN AIRPORT Lat: -15.45 Lon: 145.19 Height: 4.8 m
Data from the previous 72 hours. | See also: Recent months at Cooktown
Date/Time
EST
Temp
°C
App
Temp
°C
Dew
Point
Rel
Hum
%
Delta-T
°C
Wind Press
QNH
hPa
Press
MSL
hPa
Rain
since 9 am
mm
Dir
 
Spd
km/h
Gust
km/h
Spd
kts
Gust
kts
31/05:00pm 24.2 24.5 19.5 75 3.0 ESE 17 26 9 14 1015.0 - 0.2
31/04:30pm 25.1 24.1 18.8 68 4.0 ESE 22 30 12 16 1014.9 - 0.2
31/04:00pm 25.7 24.5 18.4 64 4.6 ENE 22 30 12 16 1015.0 - 0.2
31/03:30pm 25.7 25.4 19.5 68 4.0 E 20 30 11 16 1014.9 - 0.2
31/03:00pm 25.7 23.5 17.9 62 4.9 ESE 26 35 14 19 1015.0 1015.1 0.2
31/02:30pm 25.8 24.7 18.6 64 4.6 E 22 32 12 17 1015.1 - 0.2
31/02:00pm 26.5 25.1 18.7 62 5.0 E 24 35 13 19 1015.1 - 0.2
31/01:30pm 26.3 24.7 18.4 61 5.0 E 24 33 13 18 1015.5 - 0.2
31/01:00pm 26.8 25.6 19.2 63 4.9 E 24 32 13 17 1016.0 - 0.2
31/12:30pm 26.7 25.4 19.1 63 4.9 E 24 35 13 19 1016.3 - 0.2
31/12:00pm 26.4 24.7 18.2 60 5.2 E 24 35 13 19 1016.7 1016.8 0.2
31/11:30am 26.9 27.0 19.1 62 5.0 ESE 17 28 9 15 1017.0 - 0.0
31/11:00am 26.7 27.5 19.8 66 4.5 SE 15 24 8 13 1017.3 - 0.0
31/10:30am 24.6 24.7 19.1 71 3.5 SE 17 26 9 14 1017.6 - 0.0
31/10:00am 25.1 24.9 19.3 70 3.7 ESE 19 30 10 16 1017.7 - 0.0
31/09:30am 24.8 25.7 19.2 71 3.6 SE 13 20 7 11 1017.6 - 0.0
31/09:00am 24.8 25.8 19.5 72 3.4 SE 13 22 7 12 1017.4 1017.5 0.2
31/08:30am 23.8 25.2 19.6 77 2.7 SE 11 17 6 9 1017.2 - 0.2
31/08:00am 22.8 24.7 19.7 83 2.0 SSE 9 13 5 7 1017.1 - 0.2
31/07:30am 21.2 23.4 19.3 89 1.2 SSE 6 7 3 4 1017.1 - 0.2
31/07:00am 20.6 22.8 19.2 92 0.9 SSE 6 7 3 4 1017.0 - 0.2
31/06:30am 21.0 23.1 19.3 90 1.1 SSE 7 13 4 7 1016.8 - 0.2
31/06:00am 21.4 23.1 19.3 88 1.3 SE 9 15 5 8 1016.6 1016.6 0.2
31/05:53am 21.4 23.5 19.3 88 1.3 SE 7 11 4 6 1016.6 - 0.2
31/05:30am 21.7 23.4 19.3 86 1.5 SE 9 19 5 10 1016.5 - 0.2
31/05:16am 21.6 23.7 19.4 87 1.4 SE 7 11 4 6 1016.4 - 0.2
31/05:00am 21.4 23.1 19.3 88 1.3 SE 9 15 5 8 1016.3 - 0.2
31/04:30am 21.7 23.4 19.3 86 1.5 SE 9 15 5 8 1016.3 - 0.2
31/04:21am 21.5 23.2 19.3 87 1.4 SE 9 15 5 8 1016.3 - 0.2
31/04:00am 21.8 23.1 19.3 86 1.6 SE 11 17 6 9 1016.4 - 0.2
31/03:41am 21.9 23.6 19.4 86 1.6 ESE 9 17 5 9 1016.4 - 0.2
31/03:30am 22.0 23.3 19.3 85 1.7 ESE 11 15 6 8 1016.4 - 0.2
31/03:00am 21.8 23.0 19.1 84 1.7 SE 11 17 6 9 1016.4 1016.4 0.2
31/02:30am 21.4 23.0 19.2 87 1.4 ESE 9 11 5 6 1016.6 - 0.2
31/02:07am 21.8 23.4 19.1 84 1.7 SE 9 15 5 8 1016.7 - 0.2
31/02:00am 21.8 23.0 19.1 84 1.7 SE 11 17 6 9 1016.7 - 0.2
31/01:48am 22.0 24.0 19.2 84 1.8 SE 7 13 4 7 1016.9 - 0.2
31/01:30am 22.3 23.0 18.8 80 2.2 SE 13 20 7 11 1016.9 - 0.2
31/01:00am 22.5 21.8 18.2 76 2.7 ESE 19 30 10 16 1017.0 - 0.2
31/12:30am 22.6 22.1 17.8 74 3.0 ESE 17 26 9 14 1017.1 - 0.2
31/12:00am 22.4 21.5 18.1 76 2.7 ESE 20 28 11 15 1017.3 1017.2 0.2
 
Date/Time
EST
Temp
°C
App
Temp
°C
Dew
Point
Rel
Hum
%
Delta-T
°C
Wind Press
QNH
hPa
Press
MSL
hPa
Rain
since 9 am
mm
Dir
 
Spd
km/h
Gust
km/h
Spd
kts
Gust
kts
30/11:30pm 22.6 22.2 18.1 76 2.8 ESE 17 32 9 17 1017.4 - 0.2
30/11:00pm 22.8 22.5 18.2 75 2.9 SE 17 26 9 14 1017.5 - 0.2
30/10:30pm 23.0 22.3 18.2 74 3.0 ESE 19 32 10 17 1017.5 - 0.2
30/10:00pm 22.8 22.2 18.5 77 2.7 SE 19 30 10 16 1017.5 - 0.2
30/09:30pm 22.3 22.0 18.3 78 2.5 ESE 17 26 9 14 1017.5 - 0.2
30/09:00pm 22.1 23.2 18.8 81 2.1 SE 11 19 6 10 1017.5 1017.4 0.2
30/08:30pm 21.9 22.5 18.7 82 2.0 SE 13 20 7 11 1017.2 - 0.2
30/08:00pm 21.8 22.3 18.3 80 2.2 SE 13 20 7 11 1017.0 - 0.2
30/07:45pm 21.7 22.5 19.0 84 1.7 SE 13 20 7 11 1017.0 - 0.2
30/07:30pm 21.8 22.4 19.4 86 1.5 SE 15 24 8 13 1016.9 - 0.2
30/07:27pm 22.0 22.5 19.3 85 1.7 SE 15 24 8 13 1016.9 - 0.2
30/07:00pm 22.1 23.5 18.6 80 2.2 SE 9 17 5 9 1016.6 - 0.0
30/06:30pm 21.8 23.3 18.9 83 1.8 SSE 9 13 5 7 1016.4 - 0.0
30/06:00pm 23.4 23.6 17.6 70 3.6 SE 13 28 7 15 1016.3 1016.2 0.0
30/05:30pm 23.2 24.1 18.4 74 3.0 SE 11 17 6 9 1016.1 - 0.0
30/05:00pm 23.8 23.4 18.0 70 3.6 SE 17 28 9 15 1016.0 - 0.0
30/04:30pm 24.6 22.8 17.0 62 4.7 SE 22 33 12 18 1015.9 - 0.0
30/04:00pm 25.0 22.4 16.0 57 5.5 SE 24 37 13 20 1015.8 - 0.0
30/03:30pm 25.3 23.7 17.4 61 4.9 ESE 22 35 12 19 1015.7 - 0.0
30/03:00pm 25.1 23.7 17.0 60 5.0 SE 20 32 11 17 1015.9 1015.9 0.0
30/02:30pm 25.0 22.6 16.3 58 5.3 ESE 24 35 13 19 1016.1 - 0.0
30/02:00pm 25.5 23.8 17.1 59 5.2 SE 22 33 12 18 1016.4 - 0.0
30/01:30pm 25.2 24.4 17.9 64 4.6 ESE 19 30 10 16 1016.8 - 0.0
30/01:00pm 25.0 23.5 17.6 63 4.6 SE 22 33 12 18 1017.1 - 0.0
30/12:30pm 25.0 23.2 17.8 64 4.5 ESE 24 33 13 18 1017.4 - 0.0
30/12:00pm 25.2 23.7 18.6 67 4.2 ESE 24 32 13 17 1017.8 1017.8 0.0
30/11:30am 25.1 24.4 18.6 67 4.1 ESE 20 32 11 17 1018.1 - 0.0
30/11:15am 25.3 24.8 19.0 68 4.0 ESE 20 32 11 17 1018.2 - 0.0
30/11:03am 25.2 24.9 19.1 69 3.9 SE 19 30 10 16 1018.3 - 0.0
30/11:00am 25.3 24.8 19.2 69 3.9 SE 20 33 11 18 1018.4 - 0.0
30/10:30am 25.2 25.2 19.8 72 3.5 SE 19 30 10 16 1018.8 - 0.0
30/10:00am 24.1 24.2 19.1 73 3.2 SE 17 26 9 14 1019.0 - 0.0
30/09:30am 24.3 23.7 18.9 72 3.4 ESE 20 33 11 18 1019.0 - 0.0
30/09:00am 23.8 23.9 19.1 75 3.0 ESE 17 24 9 13 1018.8 1018.8 0.2
30/08:30am 23.2 24.0 19.1 78 2.6 SE 13 20 7 11 1018.7 - 0.2
30/08:00am 22.4 23.7 19.2 82 2.0 SE 11 17 6 9 1018.5 - 0.2
30/07:30am 21.6 22.6 18.7 83 1.8 SE 11 17 6 9 1018.3 - 0.2
30/07:00am 20.9 21.8 18.3 85 1.6 SE 11 17 6 9 1018.0 - 0.2
30/06:30am 21.0 22.0 17.8 82 2.0 SSE 9 15 5 8 1017.8 - 0.2
30/06:00am 20.9 22.1 18.2 84 1.7 SE 9 17 5 9 1017.4 1017.4 0.2
30/05:30am 21.2 22.1 18.5 84 1.7 SSE 11 17 6 9 1017.3 - 0.2
30/05:00am 21.5 21.8 18.8 84 1.7 SE 15 22 8 12 1017.0 - 0.2
30/04:30am 21.4 22.0 18.7 84 1.7 SE 13 22 7 12 1017.0 - 0.2
30/04:00am 21.4 22.0 18.5 83 1.8 SE 13 24 7 13 1016.9 - 0.2
30/03:30am 21.5 22.4 18.5 83 1.9 SE 11 19 6 10 1017.0 - 0.2
30/03:00am 21.7 21.7 18.2 80 2.2 SE 15 30 8 16 1017.1 1017.1 0.2
30/02:30am 21.9 21.5 18.0 78 2.4 SE 17 24 9 13 1017.3 - 0.2
30/02:00am 21.4 21.7 18.0 81 2.1 SE 13 20 7 11 1017.6 - 0.2
30/01:30am 21.5 21.4 17.9 80 2.2 SE 15 24 8 13 1018.0 - 0.2
30/01:00am 21.6 22.0 18.2 81 2.1 SE 13 22 7 12 1018.1 - 0.2
30/12:30am 21.5 22.1 18.5 83 1.9 SE 13 19 7 10 1018.3 - 0.2
30/12:00am 21.6 22.6 18.6 83 1.9 SE 11 20 6 11 1018.6 1018.6 0.2
 
Date/Time
EST
Temp
°C
App
Temp
°C
Dew
Point
Rel
Hum
%
Delta-T
°C
Wind Press
QNH
hPa
Press
MSL
hPa
Rain
since 9 am
mm
Dir
 
Spd
km/h
Gust
km/h
Spd
kts
Gust
kts
29/11:30pm 21.6 22.1 18.4 82 2.0 SE 13 19 7 10 1018.5 - 0.2
29/11:00pm 21.7 22.2 18.3 81 2.1 SE 13 22 7 12 1018.7 - 0.2
29/10:47pm 21.8 21.9 18.3 80 2.2 SE 15 20 8 11 1018.7 - 0.2
29/10:32pm 21.9 22.7 18.2 79 2.3 SE 11 20 6 11 1018.9 - 0.2
29/10:30pm 21.7 22.6 18.3 81 2.1 SE 11 17 6 9 1018.9 - 0.2
29/10:00pm 21.4 21.7 18.0 81 2.1 ESE 13 22 7 12 1018.9 - 0.2
29/09:30pm 21.4 21.7 17.8 80 2.2 ESE 13 22 7 12 1018.7 - 0.2
29/09:00pm 21.4 21.9 17.5 78 2.4 ESE 11 19 6 10 1018.6 1018.6 0.2
29/08:30pm 21.6 22.1 17.4 77 2.6 SE 11 20 6 11 1018.5 - 0.2
29/08:00pm 21.8 21.8 17.2 75 2.8 SE 13 22 7 12 1018.3 - 0.2
29/07:30pm 21.6 22.0 17.2 76 2.7 SE 11 19 6 10 1018.0 - 0.2
29/07:00pm 21.9 22.1 16.8 73 3.1 SE 11 20 6 11 1017.8 - 0.2
29/06:30pm 22.2 22.0 16.8 71 3.3 SE 13 28 7 15 1017.6 - 0.2
29/06:00pm 22.8 21.4 16.6 68 3.8 ESE 19 26 10 14 1017.4 1017.4 0.2
29/05:30pm 23.0 22.4 16.6 67 3.9 SE 15 20 8 11 1017.3 - 0.2
29/03:00pm 24.4 23.0 16.6 61 4.8 SE 19 37 10 20 1017.6 1017.6 0.0
29/02:30pm 24.8 23.3 16.8 61 4.9 SE 20 33 11 18 1017.7 - 0.0
29/02:00pm 24.7 23.1 16.4 60 5.1 SSE 20 35 11 19 1018.0 - 0.0
29/01:30pm 25.7 22.7 16.8 58 5.5 ESE 28 41 15 22 1018.5 - 0.0
29/01:00pm 25.6 22.9 16.7 58 5.5 ESE 26 44 14 24 1018.7 - 0.0
29/12:39pm 24.8 21.9 17.0 62 4.8 ESE 28 46 15 25 1018.9 - 0.0
29/12:30pm 25.2 22.6 16.9 60 5.1 SE 26 41 14 22 1019.0 - 0.0
29/12:00pm 24.2 22.4 18.8 72 3.4 ESE 26 39 14 21 1019.4 1019.4 0.0
29/11:30am 24.6 24.2 19.3 72 3.4 SE 20 32 11 17 1019.6 - 0.0
29/11:00am 25.1 22.8 18.5 67 4.2 ESE 28 41 15 22 1019.8 - 0.0
29/10:30am 23.7 22.4 19.0 75 3.0 ESE 24 43 13 23 1020.2 - 0.0
29/10:00am 24.1 23.4 18.7 72 3.4 ESE 20 32 11 17 1020.3 - 0.0
29/09:30am 24.4 23.7 18.7 70 3.6 ESE 20 32 11 17 1020.3 - 0.0
29/09:00am 23.2 22.7 18.6 75 2.9 ESE 19 28 10 15 1020.1 1020.0 0.2
29/08:30am 23.2 23.3 19.1 78 2.6 ESE 17 30 9 16 1019.9 - 0.2
29/08:00am 22.0 22.7 18.8 82 2.0 ESE 13 17 7 9 1019.7 - 0.2
29/07:30am 21.6 22.6 18.7 83 1.8 SE 11 20 6 11 1019.3 - 0.2
29/07:00am 21.5 22.2 18.8 84 1.7 SE 13 19 7 10 1019.0 - 0.2
29/06:30am 21.6 22.2 18.6 83 1.9 SE 13 20 7 11 1018.5 - 0.2
29/06:00am 21.7 22.6 18.3 81 2.1 SE 11 19 6 10 1018.1 1018.1 0.2
29/05:30am 21.9 22.7 18.2 79 2.3 SE 11 20 6 11 1017.8 - 0.2
29/05:00am 22.1 22.2 18.4 79 2.3 SE 15 24 8 13 1017.5 - 0.2
29/04:30am 22.4 22.2 17.7 75 2.9 SE 15 22 8 12 1017.3 - 0.2
29/04:00am 22.3 22.3 18.0 76 2.7 SE 15 26 8 14 1017.2 - 0.2
29/03:30am 22.3 22.3 18.1 77 2.6 SE 15 24 8 13 1017.2 - 0.2
29/03:00am 22.7 22.2 18.6 77 2.6 SE 19 32 10 17 1017.2 1017.2 0.2
29/02:30am 22.4 22.0 18.9 80 2.2 ESE 19 30 10 16 1017.3 - 0.2
29/02:00am 22.2 22.9 18.9 81 2.1 SE 13 24 7 13 1017.5 - 0.2
29/01:30am 22.0 22.7 19.6 86 1.5 SE 15 20 8 11 1017.8 - 0.2
29/01:00am 21.6 23.0 19.6 88 1.3 SE 11 20 6 11 1018.3 - 0.2
29/12:30am 21.8 22.6 19.1 84 1.7 ESE 13 22 7 12 1018.6 - 0.2
29/12:00am 22.2 22.5 19.7 86 1.6 SE 17 24 9 13 1018.8 1018.9 0.2
 
Date/Time
EST
Temp
°C
App
Temp
°C
Dew
Point
Rel
Hum
%
Delta-T
°C
Wind Press
QNH
hPa
Press
MSL
hPa
Rain
since 9 am
mm
Dir
 
Spd
km/h
Gust
km/h
Spd
kts
Gust
kts
28/11:30pm 22.0 23.4 19.6 86 1.5 SE 11 17 6 9 1019.0 - 0.2
28/11:00pm 22.0 23.4 19.5 86 1.6 SE 11 17 6 9 1018.9 - 0.2
28/10:30pm 22.1 23.6 19.7 86 1.5 SE 11 19 6 10 1018.9 - 0.2
28/10:19pm 22.2 22.9 19.7 86 1.6 SE 15 24 8 13 1018.9 - 0.2
28/10:00pm 22.3 23.9 20.0 87 1.5 SE 11 17 6 9 1019.0 - 0.2
28/09:49pm 22.3 23.6 20.1 87 1.4 ESE 13 17 7 9 1019.1 - 0.2
28/09:30pm 22.1 24.2 20.1 88 1.3 SE 9 17 5 9 1019.0 - 0.2
28/09:00pm 22.4 23.8 19.6 84 1.8 SE 11 17 6 9 1018.9 1018.8 0.2
28/08:30pm 22.5 23.4 19.2 81 2.1 SE 13 20 7 11 1018.7 - 0.0
28/08:00pm 22.4 23.7 19.2 82 2.0 SE 11 15 6 8 1018.5 - 0.0
28/07:30pm 22.4 23.7 19.2 82 2.0 SE 11 20 6 11 1018.3 - 0.0
28/07:00pm 22.5 23.4 19.2 81 2.1 SE 13 20 7 11 1018.1 - 0.0
28/06:30pm 23.0 23.8 19.1 78 2.5 SE 13 20 7 11 1017.7 - 0.0
28/06:00pm 23.5 23.2 18.2 72 3.3 ESE 17 24 9 13 1017.4 1017.4 0.0
28/05:30pm 23.7 22.7 17.9 70 3.6 SE 20 35 11 19 1017.2 - 0.0

Other Formats:

Comma delimited format used in spreadsheet applications
http://www.bom.gov.au/fwo/IDQ60801/IDQ60801.95283.axf

JavaScript Object Notation format (JSON) in row-major order
http://www.bom.gov.au/fwo/IDQ60801/IDQ60801.95283.json